createdAt,value
2023-02-05T00:01:26.686Z,15.0
2023-02-05T00:06:32.926Z,15.0
2023-02-05T00:11:39.099Z,15.0
2023-02-05T00:16:44.493Z,16.0
2023-02-05T00:21:50.551Z,15.0
2023-02-05T00:26:55.774Z,16.0
2023-02-05T00:32:01.979Z,17.0
2023-02-05T00:37:08.201Z,17.5
2023-02-05T00:42:14.398Z,17.0
2023-02-05T00:47:20.630Z,17.0
2023-02-05T00:52:26.985Z,17.0
2023-02-05T00:57:33.084Z,18.0
2023-02-05T01:02:39.264Z,19.5
2023-02-05T01:07:45.463Z,21.0
2023-02-05T01:12:51.664Z,22.0
2023-02-05T01:17:57.853Z,23.0
2023-02-05T01:23:04.099Z,25.5
2023-02-05T01:28:10.302Z,26.0
2023-02-05T01:33:16.479Z,28.0
2023-02-05T01:38:22.689Z,29.0
2023-02-05T01:43:28.911Z,30.0
2023-02-05T01:48:35.096Z,32.0
2023-02-05T01:53:41.357Z,33.0
2023-02-05T01:58:47.548Z,33.0
2023-02-05T02:03:53.721Z,34.0
2023-02-05T02:08:59.929Z,36.0
2023-02-05T02:14:05.166Z,35.0
2023-02-05T02:19:11.400Z,34.0
2023-02-05T02:24:16.610Z,33.0
2023-02-05T02:29:22.811Z,32.0
2023-02-05T02:34:29.021Z,33.0
2023-02-05T02:39:35.229Z,32.0
2023-02-05T02:44:41.444Z,32.0
2023-02-05T02:49:47.648Z,31.0
2023-02-05T02:54:53.867Z,31.0
2023-02-05T03:00:00.132Z,30.0
2023-02-05T03:05:06.275Z,30.0
2023-02-05T03:10:12.484Z,30.0
2023-02-05T03:15:18.699Z,30.0
2023-02-05T03:20:24.926Z,29.5
2023-02-05T03:25:31.106Z,29.0
2023-02-05T03:30:37.327Z,30.0
2023-02-05T03:35:43.525Z,29.0
2023-02-05T03:40:49.727Z,28.0
2023-02-05T03:45:55.995Z,28.0
2023-02-05T03:51:02.152Z,28.0
2023-02-05T03:56:08.354Z,27.0
2023-02-05T04:01:14.785Z,27.0
2023-02-05T04:06:20.765Z,26.0
2023-02-05T04:11:26.009Z,24.0
2023-02-05T04:16:32.326Z,24.0
2023-02-05T04:21:38.415Z,23.0
2023-02-05T04:26:44.619Z,21.0
2023-02-05T04:31:50.892Z,19.0
2023-02-05T04:36:57.048Z,19.0
2023-02-05T04:42:03.289Z,19.0
2023-02-05T04:47:09.468Z,18.0
2023-02-05T04:52:14.692Z,16.0
2023-02-05T04:57:20.905Z,16.0
2023-02-05T05:02:27.143Z,15.0
2023-02-05T05:07:33.418Z,15.0
2023-02-05T05:12:39.518Z,14.0
2023-02-05T05:17:45.727Z,13.0
2023-02-05T05:22:51.941Z,12.0
2023-02-05T05:27:58.157Z,11.0
2023-02-05T05:33:04.350Z,10.5
2023-02-05T05:38:10.554Z,10.0
2023-02-05T05:43:16.783Z,10.0
2023-02-05T05:48:22.977Z,10.0
2023-02-05T05:53:29.186Z,10.0
2023-02-05T05:58:34.422Z,10.0
2023-02-05T06:03:40.641Z,10.0
2023-02-05T06:08:45.861Z,10.0
2023-02-05T06:13:52.088Z,10.0
2023-02-05T06:18:57.294Z,11.0
2023-02-05T06:24:03.508Z,11.0
2023-02-05T06:29:09.719Z,11.0
2023-02-05T06:34:15.923Z,11.0
2023-02-05T06:39:24.282Z,10.0
2023-02-05T06:44:28.337Z,9.0
2023-02-05T06:49:34.556Z,7.0
2023-02-05T06:54:40.751Z,3.0
2023-02-05T06:59:46.966Z,1.0
2023-02-05T07:04:53.179Z,1.0
2023-02-05T07:09:59.381Z,1.0
2023-02-05T07:15:05.598Z,1.0
2023-02-05T07:20:11.839Z,1.0
2023-02-05T07:25:18.012Z,1.0
2023-02-05T07:30:24.213Z,1.0
2023-02-05T07:35:30.422Z,1.0
2023-02-05T07:40:36.632Z,1.0
2023-02-05T07:45:42.833Z,1.0
2023-02-05T07:50:49.039Z,1.0
2023-02-05T07:55:55.250Z,1.0
2023-02-05T08:01:01.572Z,1.0
2023-02-05T08:06:06.692Z,1.0
2023-02-05T08:11:12.897Z,1.0
2023-02-05T08:16:18.373Z,1.0
2023-02-05T08:21:24.338Z,1.0
2023-02-05T08:26:30.582Z,1.0
2023-02-05T08:31:36.812Z,2.0
2023-02-05T08:36:43.033Z,1.0
2023-02-05T08:41:49.327Z,1.0
2023-02-05T08:46:55.408Z,1.5
2023-02-05T08:52:01.588Z,2.0
2023-02-05T08:57:07.800Z,2.0
2023-02-05T09:02:14.005Z,2.0
2023-02-05T09:07:20.208Z,2.0
2023-02-05T09:12:26.539Z,2.0
2023-02-05T09:17:32.710Z,2.0
2023-02-05T09:22:38.835Z,2.0
2023-02-05T09:27:45.223Z,2.0
2023-02-05T09:32:51.308Z,2.5
2023-02-05T09:37:57.619Z,3.0
2023-02-05T09:43:03.664Z,2.0
2023-02-05T09:48:09.875Z,3.0
2023-02-05T09:53:16.088Z,3.0
2023-02-05T09:58:22.314Z,3.0
2023-02-05T10:03:27.521Z,3.0
2023-02-05T10:08:35.923Z,3.0
2023-02-05T10:13:39.986Z,3.0
2023-02-05T10:18:46.219Z,3.0
2023-02-05T10:23:52.355Z,3.0
2023-02-05T10:28:58.573Z,3.0
2023-02-05T10:34:04.806Z,4.0
2023-02-05T10:39:11.083Z,3.0
2023-02-05T10:44:17.189Z,4.0
2023-02-05T10:49:23.404Z,3.0
2023-02-05T10:54:29.606Z,3.0
2023-02-05T10:59:35.822Z,3.0
2023-02-05T11:04:42.023Z,3.0
2023-02-05T11:09:48.248Z,3.0
2023-02-05T11:14:54.444Z,3.0
2023-02-05T11:20:00.639Z,3.0
2023-02-05T11:25:06.852Z,3.0
2023-02-05T11:30:13.064Z,3.0
2023-02-05T11:35:19.285Z,4.0
2023-02-05T11:40:25.468Z,3.0
2023-02-05T11:45:31.803Z,3.0
2023-02-05T11:50:36.917Z,3.0
2023-02-05T11:55:43.313Z,3.0
2023-02-05T12:00:48.366Z,3.0
2023-02-05T12:05:54.566Z,4.0
2023-02-05T12:11:00.792Z,3.0
2023-02-05T12:16:06.035Z,4.0
2023-02-05T12:21:12.225Z,3.5
2023-02-05T12:26:18.433Z,4.0
2023-02-05T12:31:24.711Z,3.0
2023-02-05T12:36:30.855Z,3.0
2023-02-05T12:41:37.056Z,4.0
2023-02-05T12:46:43.264Z,4.0
2023-02-05T12:51:49.477Z,3.5
2023-02-05T12:56:55.674Z,4.0
2023-02-05T13:02:01.881Z,3.0
2023-02-05T13:07:08.120Z,4.0
2023-02-05T13:12:14.301Z,3.5
2023-02-05T13:17:20.512Z,3.0
2023-02-05T13:22:28.627Z,3.0
2023-02-05T13:27:32.926Z,3.0
2023-02-05T13:32:39.138Z,3.0
2023-02-05T13:37:45.349Z,3.0
2023-02-05T13:42:51.562Z,3.0
2023-02-05T13:47:57.757Z,3.0
2023-02-05T13:53:03.977Z,3.0
2023-02-05T13:58:10.173Z,3.0
2023-02-05T14:03:15.417Z,3.0
2023-02-05T14:08:21.611Z,3.0
2023-02-05T14:13:26.861Z,3.0
2023-02-05T14:18:33.118Z,3.0
2023-02-05T14:23:39.287Z,3.0
2023-02-05T14:28:45.486Z,3.0
2023-02-05T14:33:51.690Z,3.0
2023-02-05T14:38:57.900Z,3.0
2023-02-05T14:44:04.119Z,3.0
2023-02-05T14:49:10.311Z,3.0
2023-02-05T14:54:16.644Z,3.0
2023-02-05T14:59:22.727Z,3.0
2023-02-05T15:04:28.934Z,3.0
2023-02-05T15:09:35.145Z,3.0
2023-02-05T15:14:41.349Z,3.0
2023-02-05T15:19:47.553Z,3.0
2023-02-05T15:24:53.779Z,3.0
2023-02-05T15:29:59.972Z,3.0
2023-02-05T15:35:06.210Z,3.0
2023-02-05T15:40:12.390Z,3.0
2023-02-05T15:45:18.602Z,3.0
2023-02-05T15:50:24.813Z,3.0
2023-02-05T15:55:31.022Z,3.0
2023-02-05T16:00:36.252Z,3.0
2023-02-05T16:05:42.461Z,3.0
2023-02-05T16:10:47.698Z,3.0
2023-02-05T16:15:53.950Z,3.0
2023-02-05T16:21:00.136Z,3.0
2023-02-05T16:26:06.318Z,3.0
2023-02-05T16:31:12.686Z,3.0
2023-02-05T16:36:18.735Z,3.0
2023-02-05T16:41:25.155Z,3.0
2023-02-05T16:46:31.145Z,3.0
2023-02-05T16:51:37.450Z,3.0
2023-02-05T16:56:43.565Z,3.0
2023-02-05T17:01:49.894Z,4.0
2023-02-05T17:06:55.980Z,3.5
2023-02-05T17:12:02.197Z,4.0
2023-02-05T17:17:08.401Z,4.0
2023-02-05T17:22:14.616Z,3.0
2023-02-05T17:27:20.828Z,4.0
2023-02-05T17:32:27.038Z,4.0
2023-02-05T17:37:33.235Z,4.0
2023-02-05T17:42:39.452Z,4.0
2023-02-05T17:47:45.720Z,4.0
2023-02-05T17:52:51.868Z,4.0
2023-02-05T17:57:57.102Z,4.0
2023-02-05T18:03:03.330Z,4.0
2023-02-05T18:08:09.523Z,4.0
2023-02-05T18:18:21.923Z,4.0
2023-02-05T18:23:29.258Z,4.0
2023-02-05T18:28:34.357Z,4.0
2023-02-05T18:33:40.544Z,4.0
2023-02-05T18:38:46.763Z,5.0
2023-02-05T18:43:52.962Z,5.0
2023-02-05T18:48:59.171Z,5.0
2023-02-05T18:54:05.378Z,4.0
2023-02-05T18:59:11.611Z,5.0
2023-02-05T19:04:17.795Z,5.0
2023-02-05T19:09:24.001Z,5.0
2023-02-05T19:14:30.207Z,5.0
2023-02-05T19:19:36.513Z,5.0
2023-02-05T19:24:42.647Z,5.0
2023-02-05T19:29:49.008Z,5.0
2023-02-05T19:34:55.044Z,5.0
2023-02-05T19:40:01.327Z,5.0
2023-02-05T19:45:07.467Z,5.0
2023-02-05T19:50:12.732Z,5.0
2023-02-05T19:55:18.898Z,5.0
2023-02-05T20:00:24.132Z,5.0
2023-02-05T20:05:30.338Z,5.0
2023-02-05T20:10:35.845Z,5.0
2023-02-05T20:15:41.822Z,5.0
2023-02-05T20:20:48.382Z,4.0
2023-02-05T20:25:54.207Z,5.0
2023-02-05T20:31:00.691Z,4.0
2023-02-05T20:36:06.606Z,4.0
2023-02-05T20:41:12.817Z,5.0
2023-02-05T20:46:19.054Z,4.0
2023-02-05T20:51:25.252Z,5.0
2023-02-05T20:56:31.452Z,5.0
2023-02-05T21:06:43.918Z,6.0
2023-02-05T21:11:50.079Z,5.0
2023-02-05T21:16:56.300Z,5.0
2023-02-05T21:22:02.486Z,5.0
2023-02-05T21:27:08.683Z,5.0
2023-02-05T21:32:14.897Z,6.0
2023-02-05T21:37:21.110Z,6.0
2023-02-05T21:42:27.303Z,6.0
2023-02-05T21:47:33.510Z,5.0
2023-02-05T21:52:39.720Z,6.0
2023-02-05T21:57:44.954Z,5.0
2023-02-05T22:02:50.204Z,6.0
2023-02-05T22:07:56.398Z,6.0
2023-02-05T22:13:01.647Z,6.0
2023-02-05T22:18:07.850Z,6.0
2023-02-05T22:23:14.049Z,6.0
2023-02-05T22:28:20.266Z,6.0
2023-02-05T22:33:26.466Z,6.0
2023-02-05T22:38:32.675Z,5.0
2023-02-05T22:43:38.893Z,5.0
2023-02-05T22:48:45.094Z,6.0
2023-02-05T22:53:51.297Z,6.0
2023-02-05T22:58:57.511Z,5.0
2023-02-05T23:04:03.714Z,5.0
2023-02-05T23:09:09.909Z,6.0
2023-02-05T23:14:16.135Z,6.0
2023-02-05T23:19:22.397Z,5.0
2023-02-05T23:24:28.541Z,5.0
2023-02-05T23:29:34.740Z,5.0
2023-02-05T23:34:40.949Z,5.0
2023-02-05T23:39:47.160Z,5.0
2023-02-05T23:44:53.369Z,5.0
2023-02-05T23:49:59.575Z,5.0
2023-02-05T23:55:05.796Z,5.0
